Time;durP1;ratioP1;P1;durP2;ratioP2;P2;SDS_P1;SDS_P2;PMS_P1;PMS_P2;Temp;Humidity;BMP_temperature;BMP_pressure;BME280_temperature;BME280_humidity;BME280_pressure;Samples;Min_cycle;Max_cycle;Signal;HPM_P1;HPM_P2
2023/01/30 00:01:21;;;;;;;;;;;;;;;3.00;100.00;67104.81;5019520;28;19917;-85
2023/01/30 00:03:46;;;;;;;;;;;;;;;;;;5022286;28;19917;-85
2023/01/30 00:06:12;;;;;;;;;;;;;;;;;;5026226;28;19921;-85
2023/01/30 00:08:37;;;;;;;;;;;;;;;3.04;100.00;67114.56;5024020;28;20404;-85
2023/01/30 00:11:04;;;;;;;;;;;;;;;3.05;100.00;67115.69;5023840;28;19922;-85
2023/01/30 00:13:29;;;;;;;;;;;;;;;3.06;100.00;67112.13;5027331;28;19956;-85
2023/01/30 00:15:54;;;;;;;;;;;;;;;;;;5026159;28;19948;-84
2023/01/30 00:18:19;;;;;;;;;;;;;;;3.12;100.00;67118.34;5024205;28;19921;-85
2023/01/30 00:20:44;;;;;;;;;;;;;;;;;;5026768;28;20317;-85
2023/01/30 00:23:09;;;;;;;;;;;;;;;3.12;100.00;67124.16;5022216;28;19926;-85
2023/01/30 00:25:35;;;;;;;;;;;;;;;;;;5023409;28;19916;-85
2023/01/30 00:28:00;;;;;;;;;;;;;;;;;;5024713;28;19932;-85
2023/01/30 00:30:25;;;;;;;;;;;;;;;3.17;100.00;67132.44;5023844;28;19932;-85
2023/01/30 00:32:54;;;;;;;;;;;;;;;3.17;100.00;67123.97;5024678;28;19917;-85
2023/01/30 00:35:20;;;;;;;;;;;;;;;;;;5024396;28;20528;-85
2023/01/30 00:37:45;;;;;;;;;;;;;;;3.16;100.00;67128.69;5016275;28;19976;-85
2023/01/30 00:40:10;;;;;;;;;;;;;;;3.15;100.00;67126.97;5024701;28;19936;-85
2023/01/30 00:48:03;;;;;;;;;;;;;;;3.11;100.00;67122.47;5036472;28;19956;-85
2023/01/30 00:50:41;;;;;;;;;;;;;;;3.11;100.00;67117.78;5024654;28;19976;-85
2023/01/30 00:53:06;;;;;;;;;;;;;;;;;;5025500;28;19956;-85
2023/01/30 00:55:31;;;;;;;;;;;;;;;3.13;100.00;67120.03;5023441;28;19952;-84
2023/01/30 00:57:56;;;;;;;;;;;;;;;3.12;100.00;67126.78;5023095;28;19918;-85
2023/01/30 01:00:22;;;;;;;;;;;;;;;;;;5024033;28;19929;-84
2023/01/30 01:02:47;;;;;;;;;;;;;;;3.15;100.00;67121.72;5023429;28;19986;-85
2023/01/30 01:05:12;;;;;;;;;;;;;;;;;;5029473;28;19999;-85
2023/01/30 01:07:38;;;;;;;;;;;;;;;;;;5028472;28;19948;-85
2023/01/30 01:10:03;;;;;;;;;;;;;;;;;;5024929;28;20464;-85
2023/01/30 01:12:28;;;;;;;;;;;;;;;;;;5029822;28;20361;-85
2023/01/30 01:14:54;;;;;;;;;;;;;;;3.23;100.00;67136.00;5027021;28;20369;-85
2023/01/30 01:17:19;;;;;;;;;;;;;;;3.24;100.00;67137.13;5028871;28;19928;-85
2023/01/30 01:19:44;;;;;;;;;;;;;;;3.25;100.00;67132.44;5027498;28;19980;-85
2023/01/30 01:22:09;;;;;;;;;;;;;;;;;;5023836;28;19921;-85
2023/01/30 01:24:34;;;;;;;;;;;;;;;3.26;100.00;67133.56;5028849;28;19920;-85
2023/01/30 01:27:00;;;;;;;;;;;;;;;3.27;100.00;67142.56;5026489;28;19929;-85
2023/01/30 01:29:25;;;;;;;;;;;;;;;;;;5029019;28;19918;-85
2023/01/30 01:31:50;;;;;;;;;;;;;;;3.29;100.00;67144.84;5029791;28;22777;-85
2023/01/30 01:34:15;;;;;;;;;;;;;;;3.28;100.00;67146.91;5026144;28;19935;-85
2023/01/30 01:36:40;;;;;;;;;;;;;;;3.28;100.00;67144.28;5027268;28;19921;-85
2023/01/30 01:39:05;;;;;;;;;;;;;;;3.30;100.00;67143.88;5023226;28;20402;-85
2023/01/30 01:41:31;;;;;;;;;;;;;;;3.32;100.00;67140.88;5023103;28;20447;-85
2023/01/30 01:43:56;;;;;;;;;;;;;;;;;;5027896;28;19963;-85
2023/01/30 01:46:21;;;;;;;;;;;;;;;;;;5029293;28;19986;-85
2023/01/30 01:48:50;;;;;;;;;;;;;;;3.37;100.00;67154.41;5026032;28;19924;-85
2023/01/30 01:51:17;;;;;;;;;;;;;;;3.39;100.00;67154.06;5029826;28;20052;-85
2023/01/30 01:53:45;;;;;;;;;;;;;;;3.43;100.00;67152.19;5027891;28;19917;-85
2023/01/30 01:56:13;;;;;;;;;;;;;;;3.45;100.00;67154.97;5027120;28;20640;-85
2023/01/30 01:58:38;;;;;;;;;;;;;;;;;;5027340;28;19968;-85
2023/01/30 02:01:04;;;;;;;;;;;;;;;3.53;100.00;67168.69;5027668;28;19925;-85
2023/01/30 02:03:33;;;;;;;;;;;;;;;3.54;100.00;67164.56;5021638;28;19947;-85
2023/01/30 02:06:01;;;;;;;;;;;;;;;3.59;100.00;67170.22;5026348;28;20721;-85
2023/01/30 02:08:30;;;;;;;;;;;;;;;3.64;100.00;67181.13;5028883;28;20036;-86
2023/01/30 02:10:56;;;;;;;;;;;;;;;;;;5028306;28;20010;-85
2023/01/30 02:13:21;;;;;;;;;;;;;;;;;;5029669;28;20623;-85
2023/01/30 02:15:46;;;;;;;;;;;;;;;3.78;100.00;67191.66;5025064;28;19924;-85
2023/01/30 02:18:13;;;;;;;;;;;;;;;3.84;100.00;67197.84;5023657;28;20003;-85
2023/01/30 02:20:47;;;;;;;;;;;;;;;3.89;100.00;67202.94;5026803;28;20294;-85
2023/01/30 02:23:18;;;;;;;;;;;;;;;3.95;100.00;67209.69;5027023;28;19928;-85
2023/01/30 02:25:58;;;;;;;;;;;;;;;3.99;100.00;67214.75;5026896;28;20363;-85
2023/01/30 02:28:23;;;;;;;;;;;;;;;;;;5026692;28;19995;-84
2023/01/30 02:30:48;;;;;;;;;;;;;;;;;;5024892;28;20067;-85
2023/01/30 02:33:14;;;;;;;;;;;;;;;;;;5023180;28;19921;-84
2023/01/30 02:35:57;;;;;;;;;;;;;;;4.16;100.00;67232.81;5026266;28;20581;-85
2023/01/30 02:38:29;;;;;;;;;;;;;;;4.19;100.00;67236.78;5027993;28;19921;-84
2023/01/30 02:40:54;;;;;;;;;;;;;;;4.23;100.00;67246.00;5023923;28;19921;-84
2023/01/30 02:43:38;;;;;;;;;;;;;;;4.24;100.00;67247.69;5025171;28;20064;-85
2023/01/30 02:46:06;;;;;;;;;;;;;;;4.28;100.00;67251.63;5023767;28;20079;-84
2023/01/30 02:48:41;;;;;;;;;;;;;;;4.33;100.00;67256.72;5027454;28;20028;-84
2023/01/30 02:51:06;;;;;;;;;;;;;;;;;;5025895;28;19921;-85
2023/01/30 02:53:31;;;;;;;;;;;;;;;;;;5028193;28;19924;-84
2023/01/30 02:55:56;;;;;;;;;;;;;;;;;;5026000;28;19924;-84
2023/01/30 02:58:23;;;;;;;;;;;;;;;4.46;100.00;67271.97;5028453;28;20474;-85
2023/01/30 03:00:51;;;;;;;;;;;;;;;4.53;100.00;67274.59;5025276;28;20313;-85
2023/01/30 03:03:23;;;;;;;;;;;;;;;4.60;100.00;67279.28;5030432;28;19917;-85
2023/01/30 03:05:57;;;;;;;;;;;;;;;4.65;100.00;67287.56;5028589;28;20612;-85
2023/01/30 03:08:38;;;;;;;;;;;;;;;4.72;100.00;67294.91;5028240;28;19975;-85
2023/01/30 03:11:06;;;;;;;;;;;;;;;4.76;100.00;67299.44;5027713;28;20286;-85
2023/01/30 03:13:31;;;;;;;;;;;;;;;;;;5017280;28;19917;-84
2023/01/30 03:16:01;;;;;;;;;;;;;;;4.83;100.00;67304.13;5029058;28;19917;-85
2023/01/30 03:18:26;;;;;;;;;;;;;;;4.85;100.00;67314.84;5030096;28;19921;-84
2023/01/30 03:20:52;;;;;;;;;;;;;;;;;;5029413;28;19975;-85
2023/01/30 03:23:17;;;;;;;;;;;;;;;;;;5030046;28;19917;-84
2023/01/30 03:25:42;;;;;;;;;;;;;;;;;;5035290;28;19974;-85
2023/01/30 03:28:07;;;;;;;;;;;;;;;;;;5034268;28;20449;-84
2023/01/30 03:30:32;;;;;;;;;;;;;;;;;;5029650;28;19971;-85
2023/01/30 03:32:57;;;;;;;;;;;;;;;4.95;100.00;67326.16;5028899;28;19917;-85
2023/01/30 03:35:23;;;;;;;;;;;;;;;4.95;100.00;67317.69;5028892;28;19925;-85
2023/01/30 03:37:48;;;;;;;;;;;;;;;5.00;100.00;67330.66;5028987;28;20016;-85
2023/01/30 03:40:13;;;;;;;;;;;;;;;;;;5028002;28;19921;-85
2023/01/30 03:42:38;;;;;;;;;;;;;;;;;;5029199;28;19917;-84
2023/01/30 03:45:04;;;;;;;;;;;;;;;5.02;100.00;67333.50;5016303;28;19917;-85
2023/01/30 03:47:29;;;;;;;;;;;;;;;5.03;100.00;67329.34;5028148;28;20361;-85
2023/01/30 03:49:54;;;;;;;;;;;;;;;5.05;100.00;67331.59;5031823;28;19983;-86
2023/01/30 03:52:19;;;;;;;;;;;;;;;5.03;100.00;67334.06;5029405;28;19959;-85
2023/01/30 03:54:45;;;;;;;;;;;;;;;5.02;100.00;67328.22;5029587;28;19924;-85
2023/01/30 03:57:10;;;;;;;;;;;;;;;5.02;100.00;67332.94;5028979;28;19917;-85
2023/01/30 03:59:35;;;;;;;;;;;;;;;5.02;100.00;67327.66;5029049;28;19918;-84
2023/01/30 04:02:00;;;;;;;;;;;;;;;5.02;100.00;67328.22;5029677;28;19944;-85
2023/01/30 04:04:26;;;;;;;;;;;;;;;5.03;100.00;67328.78;5029502;28;20459;-84
2023/01/30 04:06:51;;;;;;;;;;;;;;;;;;5028244;28;19924;-85
2023/01/30 04:09:16;;;;;;;;;;;;;;;;;;5030907;28;19917;-85
2023/01/30 04:11:41;;;;;;;;;;;;;;;5.04;100.00;67335.19;5027798;28;20402;-85
2023/01/30 04:14:06;;;;;;;;;;;;;;;5.01;100.00;67332.38;5029983;28;19917;-84
2023/01/30 04:16:31;;;;;;;;;;;;;;;;;;5029078;28;20035;-84
2023/01/30 04:18:57;;;;;;;;;;;;;;;5.02;100.00;67328.22;5031902;28;19924;-84
2023/01/30 04:21:22;;;;;;;;;;;;;;;5.06;100.00;67332.72;5029415;28;19921;-85
2023/01/30 04:23:47;;;;;;;;;;;;;;;5.06;100.00;67338.00;5028560;28;19917;-84
2023/01/30 04:26:12;;;;;;;;;;;;;;;5.08;100.00;67340.28;5027291;28;20310;-85
2023/01/30 04:28:38;;;;;;;;;;;;;;;5.09;100.00;67330.28;5029199;28;19922;-85
2023/01/30 04:31:04;;;;;;;;;;;;;;;5.08;100.00;67340.28;5015959;28;19971;-85
2023/01/30 04:33:29;;;;;;;;;;;;;;;5.10;100.00;67342.53;5027145;28;19951;-84
2023/01/30 04:35:58;;;;;;;;;;;;;;;5.10;100.00;67337.25;5027964;28;20344;-84
2023/01/30 04:38:23;;;;;;;;;;;;;;;;;;5031356;28;20409;-85
2023/01/30 04:40:52;;;;;;;;;;;;;;;5.13;100.00;67345.94;5031034;28;19921;-84
2023/01/30 04:43:18;;;;;;;;;;;;;;;5.14;100.00;67341.78;5021293;28;19928;-84
2023/01/30 04:45:44;;;;;;;;;;;;;;;5.18;100.00;67351.56;5023106;28;19921;-86
2023/01/30 04:48:09;;;;;;;;;;;;;;;5.19;100.00;67355.34;5032140;28;19924;-85
2023/01/30 04:50:35;;;;;;;;;;;;;;;;;;5022546;28;19935;-84
2023/01/30 04:53:00;;;;;;;;;;;;;;;5.24;100.00;67357.22;5024438;28;20382;-84
2023/01/30 04:55:25;;;;;;;;;;;;;;;5.24;100.00;67349.31;5022521;28;19929;-85
2023/01/30 04:57:50;;;;;;;;;;;;;;;5.27;100.00;67355.34;5023906;28;19953;-85
2023/01/30 05:00:16;;;;;;;;;;;;;;;5.30;100.00;67364.00;5027597;28;19929;-85
2023/01/30 05:02:41;;;;;;;;;;;;;;;5.31;100.00;67359.84;5025397;28;19967;-86
2023/01/30 05:05:06;;;;;;;;;;;;;;;5.33;100.00;67362.13;5027104;28;19917;-85
2023/01/30 05:07:32;;;;;;;;;;;;;;;5.35;100.00;67364.94;5026437;28;20016;-85
2023/01/30 05:09:57;;;;;;;;;;;;;;;5.36;100.00;67366.06;5021293;28;19957;-85
2023/01/30 05:12:22;;;;;;;;;;;;;;;5.40;100.00;67370.00;5032217;28;19924;-85
2023/01/30 05:14:47;;;;;;;;;;;;;;;5.41;100.00;67371.16;5024954;28;19928;-85
2023/01/30 05:17:12;;;;;;;;;;;;;;;5.44;100.00;67379.81;5019100;28;19921;-85
2023/01/30 05:19:38;;;;;;;;;;;;;;;;;;5029189;28;19973;-85
2023/01/30 05:22:03;;;;;;;;;;;;;;;5.47;100.00;67377.34;5032587;28;20901;-85
2023/01/30 05:24:28;;;;;;;;;;;;;;;5.47;100.00;67374.72;5031034;28;20481;-86
2023/01/30 05:26:53;;;;;;;;;;;;;;;;;;5020300;28;20035;-85
2023/01/30 05:29:19;;;;;;;;;;;;;;;5.51;100.00;67382.44;5027618;28;19926;-85
2023/01/30 05:31:44;;;;;;;;;;;;;;;5.53;100.00;67390.00;5022231;28;19925;-86
2023/01/30 05:34:10;;;;;;;;;;;;;;;5.54;100.00;67391.13;5028731;28;19925;-85
2023/01/30 05:36:36;;;;;;;;;;;;;;;;;;5025987;28;19925;-85
2023/01/30 05:39:01;;;;;;;;;;;;;;;;;;5027090;28;19944;-86
2023/01/30 05:41:26;;;;;;;;;;;;;;;;;;5021187;28;19991;-85
2023/01/30 05:43:51;;;;;;;;;;;;;;;5.57;100.00;67386.03;5028247;28;19921;-86
2023/01/30 05:46:17;;;;;;;;;;;;;;;5.57;100.00;67389.22;5020457;28;19917;-85
2023/01/30 05:48:42;;;;;;;;;;;;;;;5.59;100.00;67396.75;5024924;28;20412;-85
2023/01/30 05:51:21;;;;;;;;;;;;;;;5.57;100.00;67386.03;5029597;28;19925;-86
2023/01/30 05:53:46;;;;;;;;;;;;;;;5.59;100.00;67390.94;5027220;28;19924;-85
2023/01/30 05:56:12;;;;;;;;;;;;;;;5.60;100.00;67397.88;5026490;28;20322;-86
2023/01/30 05:58:37;;;;;;;;;;;;;;;;;;5027376;28;19960;-85
2023/01/30 06:01:02;;;;;;;;;;;;;;;;;;5028480;28;19975;-85
2023/01/30 06:03:28;;;;;;;;;;;;;;;5.63;100.00;67392.78;5028858;28;19921;-85
2023/01/30 06:05:53;;;;;;;;;;;;;;;5.65;100.00;67398.25;5028339;28;19991;-85
2023/01/30 06:08:18;;;;;;;;;;;;;;;;;;5027899;28;19998;-85
2023/01/30 06:10:43;;;;;;;;;;;;;;;5.65;100.00;67398.25;5028762;28;19921;-85
2023/01/30 06:13:12;;;;;;;;;;;;;;;5.65;100.00;67398.25;5031254;28;19925;-85
2023/01/30 06:15:37;;;;;;;;;;;;;;;5.64;100.00;67393.94;5012976;28;19921;-84
2023/01/30 06:18:02;;;;;;;;;;;;;;;5.65;100.00;67398.25;5029067;28;19975;-85
2023/01/30 06:20:28;;;;;;;;;;;;;;;5.68;100.00;67405.81;5028899;28;19932;-84
2023/01/30 06:22:53;;;;;;;;;;;;;;;;;;5029860;28;19929;-84
2023/01/30 06:25:18;;;;;;;;;;;;;;;;;;5026123;28;19979;-84
2023/01/30 06:27:43;;;;;;;;;;;;;;;;;;5027389;28;19975;-85
2023/01/30 06:30:11;;;;;;;;;;;;;;;;;;5027836;28;19925;-84
2023/01/30 06:32:37;;;;;;;;;;;;;;;5.64;100.00;67401.84;5023312;28;19967;-85
2023/01/30 06:35:02;;;;;;;;;;;;;;;5.64;100.00;67397.13;5026387;28;19925;-84
2023/01/30 06:37:27;;;;;;;;;;;;;;;;;;5027935;28;20383;-85
2023/01/30 06:39:52;;;;;;;;;;;;;;;5.65;100.00;67402.97;5029229;28;19925;-84
2023/01/30 06:42:18;;;;;;;;;;;;;;;;;;5024517;28;19929;-84
2023/01/30 06:44:43;;;;;;;;;;;;;;;5.59;100.00;67391.47;5021671;28;19952;-86
2023/01/30 06:47:08;;;;;;;;;;;;;;;;;;5028929;28;19984;-84
2023/01/30 06:49:33;;;;;;;;;;;;;;;5.56;100.00;67388.09;5029369;28;19928;-85
2023/01/30 06:51:58;;;;;;;;;;;;;;;5.55;100.00;67386.41;5027217;28;21244;-84
2023/01/30 06:54:24;;;;;;;;;;;;;;;5.52;100.00;67388.84;5029509;28;19921;-83
2023/01/30 06:56:49;;;;;;;;;;;;;;;5.51;100.00;67387.72;5028033;28;19925;-84
2023/01/30 06:59:14;;;;;;;;;;;;;;;;;;5029645;28;19924;-86
2023/01/30 07:01:40;;;;;;;;;;;;;;;5.46;100.00;67382.06;5026390;28;20008;-85
2023/01/30 07:04:05;;;;;;;;;;;;;;;;;;5026053;28;19928;-84
2023/01/30 07:06:30;;;;;;;;;;;;;;;;;;5028738;28;20374;-84
2023/01/30 07:08:57;;;;;;;;;;;;;;;5.41;100.00;67371.72;5028951;28;19916;-86
2023/01/30 07:11:22;;;;;;;;;;;;;;;;;;5028607;28;19933;-84
2023/01/30 07:13:47;;;;;;;;;;;;;;;5.37;100.00;67372.47;5027209;28;19971;-84
2023/01/30 07:16:12;;;;;;;;;;;;;;;5.36;100.00;67370.78;5026732;28;20004;-83
2023/01/30 07:18:38;;;;;;;;;;;;;;;5.35;100.00;67369.63;5021513;28;19921;-84
2023/01/30 07:21:03;;;;;;;;;;;;;;;5.32;100.00;67358.34;5029143;28;19925;-84
2023/01/30 07:23:28;;;;;;;;;;;;;;;5.32;100.00;67360.97;5031124;28;19931;-85
2023/01/30 07:25:54;;;;;;;;;;;;;;;;;;5025816;28;19927;-86
2023/01/30 07:28:19;;;;;;;;;;;;;;;;;;5027670;28;19959;-84
2023/01/30 07:30:44;;;;;;;;;;;;;;;;;;5022580;28;20564;-84
2023/01/30 07:33:09;;;;;;;;;;;;;;;;;;5025845;28;20056;-83
2023/01/30 07:35:34;;;;;;;;;;;;;;;;;;5028047;28;19921;-85
2023/01/30 07:38:00;;;;;;;;;;;;;;;5.18;100.00;67343.09;5027537;28;19921;-83
2023/01/30 07:40:25;;;;;;;;;;;;;;;5.16;100.00;67349.31;5029257;28;19921;-84
2023/01/30 07:43:01;;;;;;;;;;;;;;;5.15;100.00;67342.34;5028182;28;20298;-84
2023/01/30 07:45:37;;;;;;;;;;;;;;;5.15;100.00;67342.91;5026936;28;20422;-84
2023/01/30 07:48:03;;;;;;;;;;;;;;;5.18;100.00;67346.31;5028362;28;19921;-88
2023/01/30 07:50:28;;;;;;;;;;;;;;;5.16;100.00;67343.47;5027947;28;20298;-84
2023/01/30 07:52:53;;;;;;;;;;;;;;;;;;5027870;28;19981;-84
2023/01/30 07:55:18;;;;;;;;;;;;;;;5.15;100.00;67342.34;5029567;28;19969;-84
2023/01/30 07:57:43;;;;;;;;;;;;;;;;;;5028835;28;19924;-85
2023/01/30 08:00:09;;;;;;;;;;;;;;;;;;5027628;28;19929;-84
2023/01/30 08:02:35;;;;;;;;;;;;;;;5.11;100.00;67338.38;5026584;28;19921;-84
2023/01/30 08:05:00;;;;;;;;;;;;;;;5.08;100.00;67340.28;5026938;28;19925;-86
2023/01/30 08:07:25;;;;;;;;;;;;;;;;;;5024360;28;19921;-86
2023/01/30 08:09:50;;;;;;;;;;;;;;;5.05;100.00;67331.59;5024203;28;19921;-84
2023/01/30 08:12:16;;;;;;;;;;;;;;;;;;5025788;28;19921;-83
2023/01/30 08:14:41;;;;;;;;;;;;;;;;;;5023887;28;19921;-87
2023/01/30 08:17:06;;;;;;;;;;;;;;;4.96;100.00;67326.72;5027288;28;20001;-85
2023/01/30 08:19:31;;;;;;;;;;;;;;;4.95;100.00;67320.31;5024591;28;19925;-88
2023/01/30 08:21:57;;;;;;;;;;;;;;;4.92;100.00;67317.50;5025996;28;19921;-84
2023/01/30 08:24:22;;;;;;;;;;;;;;;;;;5024378;28;19921;-84
2023/01/30 08:26:48;;;;;;;;;;;;;;;4.87;100.00;67316.56;5025340;28;19939;-84
2023/01/30 08:29:13;;;;;;;;;;;;;;;4.86;100.00;67315.41;5026198;28;19927;-84
2023/01/30 08:31:38;;;;;;;;;;;;;;;4.84;100.00;67313.19;5025408;28;20016;-88
2023/01/30 08:34:04;;;;;;;;;;;;;;;4.83;100.00;67312.03;5024081;28;19990;-83
2023/01/30 08:36:29;;;;;;;;;;;;;;;4.83;100.00;67312.59;5027447;28;19979;-84
2023/01/30 08:38:54;;;;;;;;;;;;;;;;;;5025976;28;19921;-83
2023/01/30 08:41:19;;;;;;;;;;;;;;;;;;5028251;28;19948;-87
2023/01/30 08:43:46;;;;;;;;;;;;;;;;;;5021355;28;21828;-85
2023/01/30 08:46:12;;;;;;;;;;;;;;;4.85;100.00;67314.31;5027257;28;20440;-84
2023/01/30 08:48:39;;;;;;;;;;;;;;;4.84;100.00;67313.19;5027251;28;19971;-83
2023/01/30 08:51:04;;;;;;;;;;;;;;;4.87;100.00;67316.56;5024328;28;19925;-84
2023/01/30 08:53:29;;;;;;;;;;;;;;;4.92;100.00;67316.91;5029070;28;20268;-86
2023/01/30 08:55:55;;;;;;;;;;;;;;;4.95;100.00;67328.25;5024146;28;19921;-84
2023/01/30 08:58:20;;;;;;;;;;;;;;;4.99;100.00;67330.13;5025857;28;19928;-84
2023/01/30 09:00:46;;;;;;;;;;;;;;;4.99;100.00;67324.84;5026774;28;19921;-82
2023/01/30 09:03:11;;;;;;;;;;;;;;;;;;5020720;28;19925;-84
2023/01/30 09:05:36;;;;;;;;;;;;;;;5.09;100.00;67333.50;5022143;28;19925;-84
2023/01/30 09:08:02;;;;;;;;;;;;;;;5.14;100.00;67349.69;5022116;28;20019;-84
2023/01/30 09:10:27;;;;;;;;;;;;;;;5.19;100.00;67352.13;5025976;28;19932;-85
2023/01/30 09:12:52;;;;;;;;;;;;;;;5.20;100.00;67347.97;5022800;28;20032;-84
2023/01/30 09:15:17;;;;;;;;;;;;;;;5.23;100.00;67356.66;5021029;28;19928;-84
2023/01/30 09:17:43;;;;;;;;;;;;;;;;;;5022127;28;19976;-84
2023/01/30 09:20:09;;;;;;;;;;;;;;;5.38;100.00;67368.34;5019880;28;19932;-84
2023/01/30 09:22:34;;;;;;;;;;;;;;;5.45;100.00;67380.94;5025641;28;20330;-84
2023/01/30 09:25:00;;;;;;;;;;;;;;;5.49;100.00;67384.91;5023967;28;19935;-84
2023/01/30 09:27:25;;;;;;;;;;;;;;;5.53;100.00;67382.06;5022774;28;20004;-84
2023/01/30 09:29:50;;;;;;;;;;;;;;;;;;5026772;28;19957;-84
2023/01/30 09:32:15;;;;;;;;;;;;;;;;;;5026320;28;20379;-84
2023/01/30 09:34:40;;;;;;;;;;;;;;;;;;5024790;28;19936;-83
2023/01/30 09:37:07;;;;;;;;;;;;;;;;;;5025141;28;19921;-85
2023/01/30 09:39:32;;;;;;;;;;;;;;;5.62;100.00;67394.88;5025662;28;19929;-84
2023/01/30 09:42:03;;;;;;;;;;;;;;;5.68;100.00;67398.44;5024781;28;19921;-83
2023/01/30 09:44:47;;;;;;;;;;;;;;;5.71;100.00;67403.91;5026574;28;19961;-84
2023/01/30 09:47:15;;;;;;;;;;;;;;;5.73;100.00;67403.53;5035994;28;20004;-85
2023/01/30 09:49:54;;;;;;;;;;;;;;;5.76;100.00;67410.13;5026827;28;19984;-84
2023/01/30 09:52:19;;;;;;;;;;;;;;;;;;5040020;28;20402;-84
2023/01/30 09:54:45;;;;;;;;;;;;;;;5.77;100.00;67415.97;5021980;28;20444;-84
2023/01/30 09:57:20;;;;;;;;;;;;;;;5.77;100.00;67418.63;5024316;28;19940;-84
2023/01/30 09:59:55;;;;;;;;;;;;;;;5.79;100.00;67413.53;5025953;28;19921;-84
2023/01/30 10:02:28;;;;;;;;;;;;;;;5.79;100.00;67412.97;5018186;28;20013;-83
2023/01/30 10:04:55;;;;;;;;;;;;;;;5.79;100.00;67413.53;5017785;28;19929;-84
2023/01/30 10:07:36;;;;;;;;;;;;;;;5.80;100.00;67419.94;5021171;28;19921;-84
2023/01/30 10:10:14;;;;;;;;;;;;;;;5.79;100.00;67418.81;5025117;28;19936;-84
2023/01/30 10:12:39;;;;;;;;;;;;;;;;;;5022875;28;19925;-83
2023/01/30 10:15:04;;;;;;;;;;;;;;;;;;5026289;28;19963;-84
2023/01/30 10:17:29;;;;;;;;;;;;;;;;;;5027339;28;20064;-84
2023/01/30 10:20:00;;;;;;;;;;;;;;;5.78;100.00;67417.09;5025492;28;20264;-84
2023/01/30 10:22:47;;;;;;;;;;;;;;;5.78;100.00;67411.81;5027402;28;20046;-84
2023/01/30 10:25:12;;;;;;;;;;;;;;;;;;5021944;28;19926;-83
2023/01/30 10:27:40;;;;;;;;;;;;;;;5.79;100.00;67418.25;5027607;28;20429;-84
2023/01/30 10:30:05;;;;;;;;;;;;;;;;;;5026588;28;19960;-84
2023/01/30 10:32:30;;;;;;;;;;;;;;;;;;5027292;28;20597;-84
2023/01/30 10:34:55;;;;;;;;;;;;;;;;;;5021484;28;19928;-85
2023/01/30 10:37:20;;;;;;;;;;;;;;;;;;5019782;28;19925;-84
2023/01/30 10:39:54;;;;;;;;;;;;;;;5.84;100.00;67424.47;5024779;28;20007;-84
2023/01/30 10:42:26;;;;;;;;;;;;;;;5.88;100.00;67423.13;5019364;28;20398;-84
2023/01/30 10:44:53;;;;;;;;;;;;;;;5.89;100.00;67424.25;5023892;28;19929;-84
2023/01/30 10:47:34;;;;;;;;;;;;;;;5.91;100.00;67431.81;5025381;28;19997;-84
2023/01/30 10:49:59;;;;;;;;;;;;;;;;;;5023419;28;19972;-84
2023/01/30 10:52:25;;;;;;;;;;;;;;;;;;5024119;28;19921;-84
2023/01/30 10:55:14;;;;;;;;;;;;;;;6.01;100.00;67437.84;5022898;28;19921;-83
2023/01/30 10:57:39;;;;;;;;;;;;;;;6.04;100.00;67438.59;5023684;28;20460;-82
2023/01/30 11:00:12;;;;;;;;;;;;;;;6.06;100.00;67440.28;5021743;28;19924;-84
2023/01/30 11:02:37;;;;;;;;;;;;;;;;;;5017156;28;19921;-84
2023/01/30 11:05:09;;;;;;;;;;;;;;;6.11;100.00;67445.94;5023778;28;20005;-85
2023/01/30 11:07:34;;;;;;;;;;;;;;;6.09;100.00;67446.88;5021053;28;20379;-84
2023/01/30 11:09:59;;;;;;;;;;;;;;;6.12;100.00;67454.44;5023306;28;19928;-83
2023/01/30 11:12:25;;;;;;;;;;;;;;;6.14;100.00;67451.41;5026217;28;19921;-84
2023/01/30 11:14:53;;;;;;;;;;;;;;;6.15;100.00;67452.53;5024957;28;19937;-84
2023/01/30 11:17:20;;;;;;;;;;;;;;;6.18;100.00;67461.22;5023402;28;19968;-84
2023/01/30 11:19:45;;;;;;;;;;;;;;;;;;5025060;28;19928;-84
2023/01/30 11:22:10;;;;;;;;;;;;;;;;;;5025814;28;20000;-84
2023/01/30 11:24:40;;;;;;;;;;;;;;;6.20;100.00;67456.09;5025215;28;19972;-84
2023/01/30 11:27:05;;;;;;;;;;;;;;;;;;5023682;28;19928;-84
2023/01/30 11:29:32;;;;;;;;;;;;;;;6.38;100.00;67478.53;5024153;28;19921;-83
2023/01/30 11:32:05;;;;;;;;;;;;;;;6.47;100.00;67494.00;5024471;28;20418;-84
2023/01/30 11:34:30;;;;;;;;;;;;;;;;;;5020909;28;19952;-84
2023/01/30 11:37:14;;;;;;;;;;;;;;;6.60;100.00;67502.28;5015298;28;20430;-84
2023/01/30 11:39:46;;;;;;;;;;;;;;;6.60;100.00;67502.84;5022447;28;20113;-82
2023/01/30 11:42:12;;;;;;;;;;;;;;;6.59;100.00;67506.44;5018375;28;19925;-84
2023/01/30 11:44:39;;;;;;;;;;;;;;;6.60;100.00;67502.28;5025942;28;19983;-83
2023/01/30 11:47:08;;;;;;;;;;;;;;;6.62;100.00;67509.81;5021000;28;19921;-85
2023/01/30 11:49:55;;;;;;;;;;;;;;;6.61;100.00;67501.34;5024749;28;20008;-85
2023/01/30 11:52:40;;;;;;;;;;;;;;;6.61;100.00;67503.97;5033247;28;19931;-85
2023/01/30 11:55:09;;;;;;;;;;;;;;;6.59;100.00;67506.44;5025735;28;20011;-85
2023/01/30 11:57:34;;;;;;;;;;;;;;;;;;5027606;28;19918;-85
2023/01/30 12:00:00;;;;;;;;;;;;;;;6.53;100.00;67500.81;5028522;28;19925;-85
2023/01/30 12:02:29;;;;;;;;;;;;;;;6.50;100.00;67497.41;5028424;28;19965;-85
2023/01/30 12:05:00;;;;;;;;;;;;;;;6.47;100.00;67493.44;5022909;28;19979;-85
2023/01/30 12:07:30;;;;;;;;;;;;;;;6.42;100.00;67483.06;5025000;28;20374;-85
2023/01/30 12:09:56;;;;;;;;;;;;;;;6.42;100.00;67480.44;5025542;28;19984;-85
2023/01/30 12:12:21;;;;;;;;;;;;;;;;;;5028055;28;19925;-85
2023/01/30 12:14:48;;;;;;;;;;;;;;;6.43;100.00;67484.19;5028746;28;19921;-85
2023/01/30 12:17:32;;;;;;;;;;;;;;;6.43;100.00;67488.91;5025243;28;19921;-85
2023/01/30 12:20:01;;;;;;;;;;;;;;;6.47;100.00;67493.44;5026692;28;20426;-85
2023/01/30 12:22:26;;;;;;;;;;;;;;;;;;5030571;28;19928;-85
2023/01/30 12:24:57;;;;;;;;;;;;;;;6.49;100.00;67490.97;5028555;28;19921;-85
2023/01/30 12:27:23;;;;;;;;;;;;;;;;;;5028860;28;19924;-86
2023/01/30 12:29:48;;;;;;;;;;;;;;;;;;5027604;28;19921;-84
2023/01/30 12:32:13;;;;;;;;;;;;;;;;;;5024968;28;19925;-85
2023/01/30 12:34:38;;;;;;;;;;;;;;;;;;5021796;28;19960;-85
2023/01/30 12:37:03;;;;;;;;;;;;;;;6.54;100.00;67496.06;5027427;28;19936;-85
2023/01/30 12:39:28;;;;;;;;;;;;;;;;;;5031360;28;19927;-85
2023/01/30 12:41:53;;;;;;;;;;;;;;;;;;5027121;28;19930;-85
2023/01/30 12:44:30;;;;;;;;;;;;;;;6.58;100.00;67500.59;5028996;28;19975;-85
2023/01/30 12:46:55;;;;;;;;;;;;;;;;;;5026258;28;19990;-85
2023/01/30 12:49:27;;;;;;;;;;;;;;;6.67;100.00;67510.19;5028511;28;20533;-85
2023/01/30 12:52:20;;;;;;;;;;;;;;;6.70;100.00;67514.19;5024346;28;20412;-85
2023/01/30 12:55:00;;;;;;;;;;;;;;;6.76;100.00;67528.31;5023197;28;19921;-85
2023/01/30 12:57:33;;;;;;;;;;;;;;;6.80;100.00;67524.34;5025742;28;20410;-85
2023/01/30 12:59:58;;;;;;;;;;;;;;;;;;5031282;28;19928;-85
2023/01/30 13:02:36;;;;;;;;;;;;;;;6.84;100.00;67523.56;5032169;28;20386;-84
2023/01/30 13:05:20;;;;;;;;;;;;;;;6.84;100.00;67528.88;5020352;28;19918;-85
2023/01/30 13:08:04;;;;;;;;;;;;;;;7.06;100.00;67553.75;5030821;28;19921;-84
2023/01/30 13:10:32;;;;;;;;;;;;;;;7.09;100.00;67556.59;5042359;28;19931;-85
2023/01/30 13:12:57;;;;;;;;;;;;;;;;;;5030640;28;19921;-85
2023/01/30 13:15:30;;;;;;;;;;;;;;;6.99;100.00;67546.41;5029924;28;19927;-85
2023/01/30 13:18:08;;;;;;;;;;;;;;;7.03;100.00;67549.81;5029289;28;20008;-84
2023/01/30 13:20:48;;;;;;;;;;;;;;;7.03;100.00;67555.09;5029595;28;19928;-85
2023/01/30 13:23:19;;;;;;;;;;;;;;;7.07;100.00;67554.31;5030805;28;19924;-84
2023/01/30 13:25:57;;;;;;;;;;;;;;;7.12;100.00;67557.34;5029706;28;20387;-85
2023/01/30 13:28:24;;;;;;;;;;;;;;;7.11;100.00;67564.16;5040752;28;19921;-85
2023/01/30 13:30:49;;;;;;;;;;;;;;;;;;5030923;28;19933;-85
2023/01/30 13:33:20;;;;;;;;;;;;;;;7.10;100.00;67557.72;5027771;28;19921;-85
2023/01/30 13:35:48;;;;;;;;;;;;;;;7.08;100.00;67553.38;5028989;28;20022;-85
2023/01/30 13:38:17;;;;;;;;;;;;;;;7.07;100.00;67560.19;5029105;28;19928;-84
2023/01/30 13:40:42;;;;;;;;;;;;;;;;;;5030554;28;20297;-85
2023/01/30 13:43:08;;;;;;;;;;;;;;;6.99;100.00;67551.69;5032904;28;19921;-84
2023/01/30 13:45:35;;;;;;;;;;;;;;;6.97;100.00;67544.13;5032058;28;19917;-85
2023/01/30 13:48:03;;;;;;;;;;;;;;;6.91;100.00;67537.34;5036355;28;19923;-84
2023/01/30 13:50:45;;;;;;;;;;;;;;;6.87;100.00;67532.25;5032374;28;19921;-84
2023/01/30 13:53:11;;;;;;;;;;;;;;;;;;5030451;28;20003;-84
2023/01/30 13:55:41;;;;;;;;;;;;;;;7.07;100.00;67554.31;5031372;28;19963;-85
2023/01/30 13:58:06;;;;;;;;;;;;;;;7.18;100.00;67564.69;5031746;28;20311;-85